Wetterdaten: Dezember 2008
Datum Temp Feuchte Luftdruck Regen Wind Richtung Sonnenschein UV Solar Windben
01.12.2008 0,9 C 93 % 998,8 hPa 0,0 l/m 5,3 km/h S-SO 0,00 h 0,0 UV-I 72 W/m 15,3 km/h
02.12.2008 1,7 C 95 % 1004,5 hPa 5,0 l/m 8,5 km/h S-SW 0,00 h 0,0 UV-I 14 W/m 16,1 km/h
03.12.2008 -0,2 C 95 % 998,8 hPa 0,2 l/m 5,0 km/h S-SO 0,00 h 0,0 UV-I 8 W/m 10,1 km/h
04.12.2008 1,0 C 95 % 991,3 hPa 0,6 l/m 10,7 km/h S 0,00 h 0,0 UV-I 13 W/m 17,3 km/h
05.12.2008 3,4 C 94 % 991,5 hPa 0,4 l/m 8,4 km/h S-SO 0,32 h 0,5 UV-I 66 W/m 13,3 km/h
06.12.2008 3,4 C 98 % 1008,2 hPa 6,2 l/m 4,6 km/h W-NW 0,00 h 0,0 UV-I 14 W/m 11,7 km/h
07.12.2008 3,5 C 95 % 1025,3 hPa 0,0 l/m 5,0 km/h NW 0,32 h 0,0 UV-I 52 W/m 16,1 km/h
08.12.2008 0,8 C 93 % 1023,2 hPa 0,2 l/m 5,2 km/h S 0,92 h 0,5 UV-I 75 W/m 12,1 km/h
09.12.2008 -0,9 C 95 % 1012,9 hPa 0,0 l/m 6,8 km/h S 0,00 h 0,0 UV-I 23 W/m 14,5 km/h
10.12.2008 0,2 C 98 % 1012,9 hPa 1,8 l/m 1,7 km/h S-SW 0,00 h 0,0 UV-I 21 W/m 3,2 km/h
11.12.2008 -0,3 C 97 % 1013,0 hPa 0,2 l/m 0,1 km/h S-SO 0,00 h 0,0 UV-I 52 W/m 0,4 km/h
12.12.2008 -0,6 C 92 % 1018,6 hPa 0,0 l/m 7,6 km/h S-SO 0,00 h 0,0 UV-I 47 W/m 15,6 km/h
13.12.2008 -0,7 C 92 % 1005,5 hPa 0,0 l/m 13,7 km/h SO 0,00 h 0,0 UV-I 24 W/m 27,0 km/h
14.12.2008 2,0 C 91 % 1006,3 hPa 0,2 l/m 5,3 km/h S-SO 1,92 h 0,6 UV-I 86 W/m 12,1 km/h
15.12.2008 1,9 C 95 % 1015,8 hPa 0,0 l/m 3,2 km/h N-NO 0,00 h 0,0 UV-I 40 W/m 7,7 km/h
16.12.2008 1,1 C 95 % 1014,7 hPa 0,0 l/m 2,5 km/h SO 0,00 h 0,0 UV-I 20 W/m 6,4 km/h
17.12.2008 -0,3 C 98 % 1013,5 hPa 1,0 l/m 2,7 km/h S 0,00 h 0,0 UV-I 36 W/m 5,6 km/h
18.12.2008 2,1 C 97 % 1019,0 hPa 1,4 l/m 4,7 km/h S 3,00 h 0,5 UV-I 73 W/m 9,3 km/h
19.12.2008 3,4 C 95 % 1021,3 hPa 6,0 l/m 8,4 km/h S 2,00 h 0,0 UV-I 82 W/m 26,5 km/h
20.12.2008 5,0 C 93 % 1020,6 hPa 8,0 l/m 12,7 km/h NW 0,00 h 0,0 UV-I 51 W/m 29,0 km/h
21.12.2008 6,1 C 96 % 1028,4 hPa 3,0 l/m 8,3 km/h W 0,00 h 0,0 UV-I 16 W/m 13,3 km/h
22.12.2008 5,9 C 93 % 1029,7 hPa 3,6 l/m 14,5 km/h NW 2,00 h 0,5 UV-I 78 W/m 26,5 km/h
23.12.2008 3,6 C 99 % 1034,9 hPa 2,2 l/m 4,3 km/h NW 0,00 h 0,0 UV-I 33 W/m 11,7 km/h
24.12.2008 3,9 C 99 % 1029,3 hPa 1,4 l/m 6,0 km/h N-NW 0,00 h 0,0 UV-I 13 W/m 14,9 km/h
25.12.2008 0,7 C 90 % 1036,1 hPa 0,2 l/m 4,3 km/h NO 1,25 h 0,5 UV-I 71 W/m 14,1 km/h
26.12.2008 -3,2 C 83 % 1040,7 hPa 0,0 l/m 4,4 km/h O 3,00 h 0,6 UV-I 92 W/m 11,3 km/h
27.12.2008 -3,3 C 87 % 1037,7 hPa 0,0 l/m 4,6 km/h O-SO 2,25 h 0,6 UV-I 90 W/m 14,0 km/h
28.12.2008 -4,1 C 88 % 1033,2 hPa 0,0 l/m 5,9 km/h O 1,58 h 0,6 UV-I 75 W/m 16,5 km/h
29.12.2008 -5,0 C 86 % 1033,6 hPa 0,0 l/m 11,6 km/h O-SO 3,17 h 0,6 UV-I 94 W/m 26,1 km/h
30.12.2008 -5,5 C 88 % 1031,9 hPa 0,0 l/m 4,0 km/h S-SO 3,08 h 0,6 UV-I 96 W/m 7,6 km/h
31.12.2008 -5,8 C 86 % 1026,1 hPa 0,0 l/m 1,8 km/h S 2,75 h 0,5 UV-I 91 W/m 4,0 km/h
Min-Datum 31.12.08 26.12.08 05.12.08 18 Tage 01.12.08 - - - - 01.12.08
Min-Zeit 05:25 13:20 01:40 - 06:15 - - - - 06:15
Minimum -8,8 C 67 % 986,4 hPa - 0,0 km/h - - - - 0,0 km/h
Max-Datum 22.12.08 10.12.08 26.12.08 20.12.08 22.12.08 - 29.12.08 27.12.08 27.12.08 04.12.08
Max-Zeit 12:50 23:20 09:40 04:00 07:30 - 14:25 12:15 11:50 17:10
Maximum 7,8 C 100 % 1042,0 hPa 8,0 l/m 31,2 km/h
NW
- 3,08 h 0,7 UV-I 316 W/m 49,9 km/h
S
Durchschnitt 0,7 C 93 % 1018,6 hPa #41,6 l/m 6,2 km/h S-SO #27:33 h 0,5 UV-I 52 W/m 13,8 km/h

Durchschnitt Minimum Temp.-1,2 C
Durchschnitt Maximum Temp.2,4 C